Time;durP1;ratioP1;P1;durP2;ratioP2;P2;SDS_P1;SDS_P2;PMS_P1;PMS_P2;Temp;Humidity;BMP_temperature;BMP_pressure;BME280_temperature;BME280_humidity;BME280_pressure;Samples;Min_cycle;Max_cycle;Signal;HPM_P1;HPM_P2
2022/03/19 00:01:14;;;;;;;37.97;24.00;;;5.70;99.90;;;;;;5054383;28;20245;-75
2022/03/19 00:03:41;;;;;;;41.10;23.80;;;5.60;99.90;;;;;;5054582;28;20201;-75
2022/03/19 00:06:09;;;;;;;42.97;24.05;;;5.60;99.90;;;;;;5054622;28;20201;-75
2022/03/19 00:08:37;;;;;;;40.92;25.02;;;5.60;99.90;;;;;;5054539;28;20303;-75
2022/03/19 00:11:04;;;;;;;44.85;25.92;;;5.50;99.90;;;;;;5054646;28;20211;-75
2022/03/19 00:13:31;;;;;;;39.90;24.17;;;5.50;99.90;;;;;;5054379;28;20221;-76
2022/03/19 00:15:58;;;;;;;40.38;24.92;;;5.50;99.90;;;;;;5054546;28;20201;-75
2022/03/19 00:18:25;;;;;;;39.90;24.48;;;5.50;99.90;;;;;;5054284;28;20307;-73
2022/03/19 00:20:54;;;;;;;40.53;25.15;;;5.40;99.90;;;;;;5054124;28;20541;-72
2022/03/19 00:23:22;;;;;;;42.10;25.00;;;5.40;99.90;;;;;;5054271;28;20196;-72
2022/03/19 00:25:49;;;;;;;45.03;25.75;;;5.40;99.90;;;;;;5056708;28;20264;-72
2022/03/19 00:28:18;;;;;;;42.08;25.65;;;5.30;99.90;;;;;;5065825;28;20288;-72
2022/03/19 00:30:46;;;;;;;43.95;26.42;;;5.30;99.90;;;;;;5068091;28;20223;-72
2022/03/19 00:33:13;;;;;;;41.63;25.00;;;5.30;99.90;;;;;;5068604;28;20216;-72
2022/03/19 00:35:40;;;;;;;42.03;25.33;;;5.30;99.90;;;;;;5064006;28;20287;-72
2022/03/19 00:38:07;;;;;;;44.65;26.25;;;5.30;99.90;;;;;;5055307;28;20667;-73
2022/03/19 00:40:36;;;;;;;40.92;24.33;;;5.20;99.90;;;;;;5054072;28;20683;-73
2022/03/19 00:43:03;;;;;;;41.67;24.85;;;5.30;99.90;;;;;;5054407;28;20275;-73
2022/03/19 00:45:30;;;;;;;43.60;25.70;;;5.20;99.90;;;;;;5053700;28;20210;-73
2022/03/19 00:47:57;;;;;;;43.10;25.73;;;5.20;99.90;;;;;;5053665;28;20746;-74
2022/03/19 00:50:24;;;;;;;39.38;24.77;;;5.20;99.90;;;;;;5053743;28;20288;-73
2022/03/19 00:52:50;;;;;;;43.05;26.10;;;5.10;99.90;;;;;;5053750;28;20311;-73
2022/03/19 00:55:17;;;;;;;43.55;27.23;;;5.20;99.90;;;;;;5053838;28;20565;-73
2022/03/19 00:57:47;;;;;;;45.30;25.98;;;5.20;99.90;;;;;;5053651;28;20210;-73
2022/03/19 01:00:16;;;;;;;47.40;26.92;;;5.10;99.90;;;;;;5053408;28;20216;-72
2022/03/19 01:02:45;;;;;;;41.30;25.80;;;5.10;99.90;;;;;;5053746;28;20279;-73
2022/03/19 01:05:13;;;;;;;47.28;27.35;;;5.10;99.90;;;;;;5053861;28;20208;-74
2022/03/19 01:07:42;;;;;;;45.30;27.35;;;5.10;99.90;;;;;;5053764;28;20374;-74
2022/03/19 01:10:10;;;;;;;50.47;27.13;;;5.10;99.90;;;;;;5053117;28;20675;-74
2022/03/19 01:12:37;;;;;;;41.63;26.15;;;5.10;99.90;;;;;;5053371;28;20303;-74
2022/03/19 01:15:06;;;;;;;46.40;26.35;;;5.00;99.90;;;;;;5053483;28;20291;-73
2022/03/19 01:17:33;;;;;;;45.50;28.25;;;5.20;99.90;;;;;;5053481;28;20204;-73
2022/03/19 01:20:01;;;;;;;45.17;26.13;;;5.00;99.90;;;;;;5053249;28;20222;-74
2022/03/19 01:22:28;;;;;;;46.10;26.95;;;5.00;99.90;;;;;;5053321;28;20292;-74
2022/03/19 01:24:55;;;;;;;43.80;25.95;;;5.00;99.90;;;;;;5053503;28;20240;-74
2022/03/19 01:27:22;;;;;;;46.67;26.63;;;5.00;99.90;;;;;;5053558;28;20204;-74
2022/03/19 01:29:49;;;;;;;48.60;27.30;;;5.00;99.90;;;;;;5053497;28;20222;-74
2022/03/19 01:32:18;;;;;;;44.13;26.67;;;5.10;99.90;;;;;;5053459;28;20203;-73
2022/03/19 01:34:44;;;;;;;39.10;24.20;;;5.00;99.90;;;;;;5053281;28;20312;-73
2022/03/19 01:37:11;;;;;;;47.58;26.90;;;5.10;99.90;;;;;;5053218;28;20228;-73
2022/03/19 01:39:38;;;;;;;46.45;27.17;;;5.00;99.90;;;;;;5055012;28;20231;-73
2022/03/19 01:42:06;;;;;;;48.90;27.40;;;5.00;99.90;;;;;;5057378;28;20208;-72
2022/03/19 01:44:33;;;;;;;47.67;27.17;;;5.00;99.90;;;;;;5056919;28;20727;-72
2022/03/19 01:47:04;;;;;;;42.55;25.67;;;5.00;99.90;;;;;;5057156;28;20210;-72
2022/03/19 01:49:32;;;;;;;44.55;26.58;;;5.00;99.90;;;;;;5056782;28;20258;-74
2022/03/19 01:51:59;;;;;;;47.72;28.70;;;5.00;99.90;;;;;;5057029;28;20291;-74
2022/03/19 01:54:28;;;;;;;45.63;26.67;;;5.00;99.90;;;;;;5056654;28;20221;-74
2022/03/19 01:56:55;;;;;;;47.85;27.63;;;5.10;99.90;;;;;;5056691;28;20740;-74
2022/03/19 01:59:24;;;;;;;46.70;27.38;;;5.00;99.90;;;;;;5056847;28;20224;-73
2022/03/19 02:01:51;;;;;;;49.05;28.08;;;5.00;99.90;;;;;;5056967;28;20196;-74
2022/03/19 02:04:19;;;;;;;48.20;29.33;;;5.00;99.90;;;;;;5056576;28;20228;-75
2022/03/19 02:06:47;;;;;;;50.70;28.58;;;5.00;99.90;;;;;;5056886;28;20204;-75
2022/03/19 02:09:15;;;;;;;48.80;28.30;;;5.00;99.90;;;;;;5057101;28;20691;-74
2022/03/19 02:11:42;;;;;;;54.05;29.88;;;5.00;99.90;;;;;;5056866;28;20197;-75
2022/03/19 02:14:09;;;;;;;49.97;28.52;;;4.90;99.90;;;;;;5056658;28;20656;-75
2022/03/19 02:16:36;;;;;;;47.40;29.23;;;5.00;99.90;;;;;;5056644;28;20211;-75
2022/03/19 02:19:03;;;;;;;53.55;31.58;;;4.90;99.90;;;;;;5056714;28;20307;-75
2022/03/19 02:21:40;;;;;;;48.60;29.02;;;4.90;99.90;;;;;;5056561;28;20201;-74
2022/03/19 02:26:53;;;;;;;49.72;29.42;;;4.80;99.90;;;;;;5056663;28;20192;-74
2022/03/19 02:29:20;;;;;;;51.72;30.08;;;4.80;99.90;;;;;;5056360;28;20220;-75
2022/03/19 02:31:50;;;;;;;51.58;30.10;;;4.80;99.90;;;;;;5056062;28;20205;-75
2022/03/19 02:34:17;;;;;;;49.78;29.60;;;4.80;99.90;;;;;;5056160;28;20246;-76
2022/03/19 02:36:44;;;;;;;53.55;30.33;;;4.80;99.90;;;;;;5056276;28;20201;-74
2022/03/19 02:39:16;;;;;;;56.33;32.50;;;4.70;99.90;;;;;;5056312;28;20315;-74
2022/03/19 02:41:43;;;;;;;52.60;30.88;;;4.70;99.90;;;;;;5056218;28;20550;-74
2022/03/19 02:44:11;;;;;;;51.28;30.40;;;4.70;99.90;;;;;;5055735;28;20536;-74
2022/03/19 02:46:39;;;;;;;59.88;32.35;;;4.70;99.90;;;;;;5055941;28;20326;-74
2022/03/19 02:49:06;;;;;;;50.88;29.48;;;4.70;99.90;;;;;;5055962;28;20228;-76
2022/03/19 02:51:37;;;;;;;57.17;32.40;;;4.70;99.90;;;;;;5056663;28;20287;-78
2022/03/19 02:54:07;;;;;;;56.70;31.77;;;4.60;99.90;;;;;;5058960;28;20242;-79
2022/03/19 02:56:37;;;;;;;52.40;30.65;;;4.60;99.90;;;;;;5059140;28;20196;-78
2022/03/19 02:59:08;;;;;;;48.95;28.83;;;4.50;99.90;;;;;;5055545;28;20226;-78
2022/03/19 03:01:37;;;;;;;50.47;29.80;;;4.60;99.90;;;;;;5055712;28;20232;-77
2022/03/19 03:04:04;;;;;;;50.17;29.40;;;4.50;99.90;;;;;;5055679;28;20196;-77
2022/03/19 03:06:36;;;;;;;50.67;29.98;;;4.50;99.90;;;;;;5055558;28;20197;-77
2022/03/19 03:09:03;;;;;;;53.30;31.33;;;4.50;99.90;;;;;;5055685;28;20217;-77
2022/03/19 03:11:30;;;;;;;56.60;31.77;;;4.50;99.90;;;;;;5055707;28;20207;-77
2022/03/19 03:13:59;;;;;;;53.90;32.60;;;4.50;99.90;;;;;;5055889;28;20231;-77
2022/03/19 03:16:26;;;;;;;50.00;29.58;;;4.50;99.90;;;;;;5055521;28;20211;-75
2022/03/19 03:18:53;;;;;;;50.90;29.38;;;4.50;99.90;;;;;;5055564;28;20224;-77
2022/03/19 03:21:20;;;;;;;53.78;29.52;;;4.50;99.90;;;;;;5056055;28;20200;-77
2022/03/19 03:23:47;;;;;;;55.28;30.75;;;4.50;99.90;;;;;;5055561;28;20197;-77
2022/03/19 03:26:14;;;;;;;55.33;29.92;;;4.50;99.90;;;;;;5055781;28;20213;-77
2022/03/19 03:28:41;;;;;;;50.95;29.77;;;4.40;99.90;;;;;;5055300;28;20311;-77
2022/03/19 03:31:10;;;;;;;53.55;30.67;;;4.40;99.90;;;;;;5054878;28;20200;-77
2022/03/19 03:33:37;;;;;;;48.25;29.48;;;4.40;99.90;;;;;;5055812;28;20307;-77
2022/03/19 03:36:04;;;;;;;57.70;31.10;;;4.40;99.90;;;;;;5055298;28;20295;-77
2022/03/19 03:38:31;;;;;;;47.17;28.45;;;4.40;99.90;;;;;;5055506;28;20220;-77
2022/03/19 03:40:58;;;;;;;51.75;31.67;;;4.40;99.90;;;;;;5055141;28;20203;-77
2022/03/19 03:43:25;;;;;;;48.97;29.65;;;4.40;99.90;;;;;;5055230;28;20283;-77
2022/03/19 03:45:52;;;;;;;49.72;30.48;;;4.40;99.90;;;;;;5055149;28;20296;-77
2022/03/19 03:48:20;;;;;;;49.15;28.05;;;4.30;99.90;;;;;;5054798;28;20597;-77
2022/03/19 03:50:49;;;;;;;46.15;28.60;;;4.30;99.90;;;;;;5056291;28;20207;-78
2022/03/19 03:53:17;;;;;;;55.08;29.02;;;4.30;99.90;;;;;;5057134;28;20212;-78
2022/03/19 03:55:44;;;;;;;50.75;29.40;;;4.30;99.90;;;;;;5057087;28;20201;-78
2022/03/19 03:58:12;;;;;;;50.67;29.05;;;4.30;99.90;;;;;;5057150;28;20220;-78
2022/03/19 04:00:39;;;;;;;50.88;29.20;;;4.30;99.90;;;;;;5056369;28;20200;-77
2022/03/19 04:03:06;;;;;;;46.33;27.98;;;4.30;99.90;;;;;;5055439;28;20196;-77
2022/03/19 04:05:35;;;;;;;49.17;28.85;;;4.20;99.90;;;;;;5055646;28;20201;-77
2022/03/19 04:08:03;;;;;;;48.15;28.75;;;4.20;99.90;;;;;;5055090;28;20731;-77
2022/03/19 04:10:31;;;;;;;46.83;28.23;;;4.20;99.90;;;;;;5056359;28;20258;-78
2022/03/19 04:12:58;;;;;;;49.88;29.30;;;4.20;99.90;;;;;;5056632;28;20207;-77
2022/03/19 04:15:25;;;;;;;48.72;27.15;;;4.20;99.90;;;;;;5056547;28;20217;-77
2022/03/19 04:17:52;;;;;;;49.22;28.70;;;4.10;99.90;;;;;;5057279;28;20227;-77
2022/03/19 04:20:21;;;;;;;46.92;27.77;;;4.10;99.90;;;;;;5059453;28;20197;-77
2022/03/19 04:22:49;;;;;;;48.58;28.27;;;4.10;99.90;;;;;;5057809;28;20674;-77
2022/03/19 04:25:18;;;;;;;46.08;29.17;;;4.10;99.90;;;;;;5059574;28;20276;-77
2022/03/19 04:27:47;;;;;;;55.03;29.95;;;4.10;99.90;;;;;;5057414;28;20201;-78
2022/03/19 04:30:15;;;;;;;53.55;30.77;;;4.00;99.90;;;;;;5054879;28;20229;-77
2022/03/19 04:32:43;;;;;;;50.63;29.17;;;4.00;99.90;;;;;;5053953;28;20664;-77
2022/03/19 04:38:00;;;;;;;51.90;28.60;;;4.00;99.90;;;;;;5060515;28;20544;-77
2022/03/19 04:40:27;;;;;;;51.60;30.90;;;4.00;99.90;;;;;;5054936;28;20689;-77
2022/03/19 04:42:54;;;;;;;47.72;29.73;;;3.90;99.90;;;;;;5054981;28;20553;-77
2022/03/19 04:45:21;;;;;;;52.22;29.58;;;3.90;99.90;;;;;;5055200;28;20288;-77
2022/03/19 04:47:48;;;;;;;52.08;30.83;;;3.90;99.90;;;;;;5059977;28;20268;-77
2022/03/19 04:50:15;;;;;;;51.92;29.02;;;4.80;99.90;;;;;;5061335;28;20274;-77
2022/03/19 04:52:42;;;;;;;56.67;32.95;;;;;;;;;;5059701;28;20203;-77
2022/03/19 04:55:11;;;;;;;53.63;30.95;;;3.90;99.90;;;;;;5059693;28;20217;-77
2022/03/19 04:57:38;;;;;;;52.65;30.92;;;3.80;99.90;;;;;;5055190;28;20293;-78
2022/03/19 05:00:08;;;;;;;50.22;30.38;;;3.80;99.90;;;;;;5055410;28;20217;-78
2022/03/19 05:02:35;;;;;;;53.72;29.77;;;3.80;99.90;;;;;;5058795;28;20222;-78
2022/03/19 05:05:02;;;;;;;53.70;30.35;;;3.80;99.90;;;;;;5065907;28;20193;-78
2022/03/19 05:07:29;;;;;;;56.67;30.88;;;3.70;99.90;;;;;;5070771;28;20233;-78
2022/03/19 05:12:43;;;;;;;52.95;30.73;;;3.70;99.90;;;;;;5060691;28;20696;-78
2022/03/19 05:15:13;;;;;;;55.63;31.00;;;3.70;99.90;;;;;;5058110;28;20236;-78
2022/03/19 05:17:40;;;;;;;54.55;30.63;;;3.70;99.90;;;;;;5053041;28;20250;-77
2022/03/19 05:20:09;;;;;;;54.33;30.58;;;3.60;99.90;;;;;;5052522;28;20602;-77
2022/03/19 05:22:36;;;;;;;45.13;27.02;;;3.60;99.90;;;;;;5053783;28;20205;-77
2022/03/19 05:25:04;;;;;;;53.72;30.17;;;3.60;99.90;;;;;;5053116;28;20197;-77
2022/03/19 05:27:31;;;;;;;56.35;31.05;;;3.60;99.90;;;;;;5052622;28;20204;-77
2022/03/19 05:30:00;;;;;;;52.72;30.50;;;3.60;99.90;;;;;;5055557;28;20583;-77
2022/03/19 05:32:27;;;;;;;52.20;30.15;;;3.60;99.90;;;;;;5056444;28;20204;-77
2022/03/19 05:34:55;;;;;;;53.95;30.00;;;3.60;99.90;;;;;;5055143;28;20220;-77
2022/03/19 05:37:22;;;;;;;52.92;28.52;;;3.60;99.90;;;;;;5054136;28;20204;-77
2022/03/19 05:39:49;;;;;;;52.55;28.85;;;3.60;99.90;;;;;;5054685;28;20221;-77
2022/03/19 05:42:16;;;;;;;56.60;30.92;;;3.70;99.90;;;;;;5054624;28;20207;-77
2022/03/19 05:44:43;;;;;;;48.38;29.00;;;3.60;99.90;;;;;;5055919;28;20616;-77
2022/03/19 05:47:11;;;;;;;53.35;28.85;;;3.60;99.90;;;;;;5055697;28;20200;-77
2022/03/19 05:49:38;;;;;;;52.17;29.48;;;3.70;99.90;;;;;;5054086;28;20239;-77
2022/03/19 05:52:05;;;;;;;48.17;28.63;;;3.70;99.90;;;;;;5055160;28;20211;-76
2022/03/19 05:54:32;;;;;;;53.45;29.55;;;3.70;99.90;;;;;;5053474;28;20213;-77
2022/03/19 05:56:59;;;;;;;52.28;28.70;;;3.80;99.90;;;;;;5053744;28;20197;-77
2022/03/19 05:59:26;;;;;;;48.85;28.55;;;3.90;99.90;;;;;;5053954;28;20315;-77
2022/03/19 06:01:53;;;;;;;47.28;27.92;;;4.00;99.90;;;;;;5054797;28;20201;-76
2022/03/19 06:04:21;;;;;;;51.47;29.58;;;4.10;99.90;;;;;;5053898;28;20203;-76
2022/03/19 06:06:48;;;;;;;45.45;26.90;;;4.30;99.90;;;;;;5053847;28;20727;-76
2022/03/19 06:09:15;;;;;;;44.28;26.90;;;4.50;99.90;;;;;;5054468;28;20216;-76
2022/03/19 06:11:44;;;;;;;47.15;27.85;;;4.60;99.90;;;;;;5054795;28;20227;-76
2022/03/19 06:14:11;;;;;;;51.03;28.90;;;4.90;99.90;;;;;;5054791;28;20205;-76
2022/03/19 06:16:38;;;;;;;47.63;26.85;;;5.40;99.90;;;;;;5054920;28;20287;-76
2022/03/19 06:19:04;;;;;;;42.28;27.13;;;5.90;99.90;;;;;;5054711;28;20248;-76
2022/03/19 06:21:33;;;;;;;42.33;25.77;;;6.60;97.10;;;;;;5068531;28;20224;-76
2022/03/19 06:24:00;;;;;;;45.10;27.08;;;7.10;94.40;;;;;;5070979;28;20205;-75
2022/03/19 06:26:26;;;;;;;46.42;27.10;;;7.10;88.70;;;;;;5072668;28;20208;-75
2022/03/19 06:28:53;;;;;;;41.92;25.08;;;7.30;78.60;;;;;;5067532;28;20259;-76
2022/03/19 06:31:20;;;;;;;44.33;25.77;;;7.60;75.80;;;;;;5062883;28;20264;-77
2022/03/19 06:33:47;;;;;;;44.00;26.35;;;8.10;70.90;;;;;;5069039;28;20273;-76
2022/03/19 06:39:01;;;;;;;42.33;25.13;;;9.80;62.30;;;;;;5066328;28;20215;-76
2022/03/19 06:41:28;;;;;;;39.22;24.10;;;10.70;46.30;;;;;;5059827;28;20196;-77
2022/03/19 06:43:55;;;;;;;43.80;26.10;;;11.30;45.60;;;;;;5059317;28;20223;-76
2022/03/19 06:46:22;;;;;;;41.78;26.00;;;11.70;41.90;;;;;;5056963;28;20197;-76
2022/03/19 06:48:49;;;;;;;41.83;25.27;;;12.00;41.30;;;;;;5056617;28;20323;-76
2022/03/19 06:51:17;;;;;;;39.97;24.15;;;12.30;35.50;;;;;;5062465;28;20227;-76
2022/03/19 06:53:45;;;;;;;36.20;22.98;;;12.40;34.00;;;;;;5061875;28;20208;-77
2022/03/19 06:56:13;;;;;;;41.60;26.55;;;12.60;36.90;;;;;;5058196;28;20224;-76
2022/03/19 06:58:41;;;;;;;42.00;25.73;;;12.80;34.10;;;;;;5056093;28;20216;-76
2022/03/19 07:01:09;;;;;;;38.88;24.67;;;12.80;31.40;;;;;;5055776;28;20603;-76
2022/03/19 07:03:36;;;;;;;37.88;23.92;;;12.90;33.10;;;;;;5056009;28;20629;-77
2022/03/19 07:06:03;;;;;;;38.00;24.48;;;13.30;30.10;;;;;;5055865;28;20210;-74
2022/03/19 07:08:32;;;;;;;34.22;23.45;;;13.60;31.60;;;;;;5055925;28;20220;-73
2022/03/19 07:10:59;;;;;;;39.20;24.15;;;13.90;29.20;;;;;;5055709;28;20197;-73
2022/03/19 07:13:27;;;;;;;33.83;22.50;;;13.80;29.20;;;;;;5056606;28;20287;-74
2022/03/19 07:15:54;;;;;;;36.47;23.60;;;13.90;28.80;;;;;;5055679;28;20216;-73
2022/03/19 07:18:21;;;;;;;36.20;23.42;;;13.70;28.00;;;;;;5055789;28;20311;-74
2022/03/19 07:20:50;;;;;;;34.83;21.95;;;13.50;28.70;;;;;;5055563;28;20726;-73
2022/03/19 07:23:17;;;;;;;34.40;21.90;;;12.90;29.10;;;;;;5056107;28;20185;-73
2022/03/19 07:25:44;;;;;;;38.28;24.75;;;12.80;30.10;;;;;;5056274;28;20676;-74
2022/03/19 07:28:13;;;;;;;35.10;22.25;;;12.50;29.50;;;;;;5055457;28;20231;-73
2022/03/19 07:30:41;;;;;;;33.42;21.55;;;12.10;30.80;;;;;;5056150;28;20204;-73
2022/03/19 07:33:10;;;;;;;35.92;22.52;;;12.10;30.30;;;;;;5056033;28;20200;-73
2022/03/19 07:35:38;;;;;;;38.47;22.95;;;11.90;30.30;;;;;;5055749;28;20225;-73
2022/03/19 07:38:06;;;;;;;28.33;20.33;;;11.60;30.10;;;;;;5054374;28;20207;-74
2022/03/19 07:43:20;;;;;;;33.75;21.02;;;11.30;31.40;;;;;;5055426;28;20180;-75
2022/03/19 07:45:48;;;;;;;33.88;22.05;;;11.40;31.10;;;;;;5054744;28;20687;-72
2022/03/19 07:48:15;;;;;;;28.85;18.92;;;11.00;31.70;;;;;;5054762;28;20232;-73
2022/03/19 07:50:42;;;;;;;32.63;21.83;;;11.30;32.20;;;;;;5055021;28;20694;-73
2022/03/19 07:53:09;;;;;;;31.50;21.23;;;11.50;30.40;;;;;;5054820;28;20628;-72
2022/03/19 07:55:36;;;;;;;32.17;21.25;;;11.50;30.80;;;;;;5054855;28;20216;-72
2022/03/19 07:58:03;;;;;;;28.80;20.20;;;11.00;32.60;;;;;;5054837;28;20204;-73
2022/03/19 08:00:30;;;;;;;31.92;21.27;;;10.90;31.80;;;;;;5054964;28;20203;-73
2022/03/19 08:02:58;;;;;;;32.88;20.45;;;10.90;32.40;;;;;;5055011;28;20220;-72
2022/03/19 08:05:25;;;;;;;24.98;17.85;;;10.90;31.60;;;;;;5054840;28;20192;-72
2022/03/19 08:07:52;;;;;;;32.80;22.10;;;11.10;31.90;;;;;;5054353;28;20197;-73
2022/03/19 08:10:19;;;;;;;27.60;20.33;;;10.80;31.30;;;;;;5054854;28;20300;-74
2022/03/19 08:12:47;;;;;;;32.08;21.38;;;10.90;32.50;;;;;;5056026;28;20207;-71
2022/03/19 08:15:17;;;;;;;30.35;20.50;;;11.00;30.80;;;;;;5055505;28;20227;-73
2022/03/19 08:17:44;;;;;;;32.67;21.40;;;10.90;31.00;;;;;;5058817;28;20201;-74
2022/03/19 08:20:15;;;;;;;32.53;20.67;;;10.40;31.70;;;;;;5056343;28;20221;-73
2022/03/19 08:22:41;;;;;;;30.45;21.02;;;9.80;34.30;;;;;;5055213;28;20201;-72
2022/03/19 08:25:09;;;;;;;29.55;20.40;;;9.50;35.00;;;;;;5054405;28;20600;-72
2022/03/19 08:27:36;;;;;;;29.95;20.52;;;9.20;37.50;;;;;;5054076;28;20200;-72
2022/03/19 08:30:03;;;;;;;34.03;20.58;;;9.10;39.30;;;;;;5054199;28;20220;-72
2022/03/19 08:32:31;;;;;;;30.42;20.20;;;8.90;38.70;;;;;;5054009;28;20208;-72
2022/03/19 08:34:58;;;;;;;29.40;21.17;;;8.70;39.20;;;;;;5055689;28;20220;-72
2022/03/19 08:37:27;;;;;;;33.65;21.10;;;8.60;40.00;;;;;;5059372;28;20207;-72
2022/03/19 08:42:40;;;;;;;29.42;19.90;;;8.40;41.70;;;;;;5060376;28;20287;-73
2022/03/19 08:45:08;;;;;;;32.97;19.90;;;8.20;42.60;;;;;;5059551;28;20197;-73
2022/03/19 08:47:35;;;;;;;31.30;20.85;;;8.20;44.40;;;;;;5059049;28;20205;-74
2022/03/19 08:50:03;;;;;;;32.70;20.55;;;8.30;43.70;;;;;;5058418;28;20230;-74
2022/03/19 08:52:32;;;;;;;30.52;19.90;;;8.30;43.40;;;;;;5058372;28;20223;-75
2022/03/19 08:55:01;;;;;;;30.13;19.83;;;8.40;43.50;;;;;;5056028;28;20291;-74
2022/03/19 08:57:29;;;;;;;32.67;19.13;;;8.50;43.90;;;;;;5056145;28;20299;-75
2022/03/19 08:59:56;;;;;;;34.70;20.42;;;8.60;43.80;;;;;;5057659;28;20225;-74
2022/03/19 09:02:24;;;;;;;40.33;22.05;;;8.70;43.10;;;;;;5058317;28;20248;-74
2022/03/19 09:04:51;;;;;;;29.88;19.75;;;8.70;42.40;;;;;;5057401;28;20224;-74
2022/03/19 09:07:18;;;;;;;32.90;19.55;;;8.60;41.70;;;;;;5056831;28;20200;-75
2022/03/19 09:09:52;;;;;;;30.02;20.30;;;8.40;41.90;;;;;;5057478;28;20303;-75
2022/03/19 09:12:22;;;;;;;33.17;21.35;;;8.50;42.00;;;;;;5056144;28;20209;-75
2022/03/19 09:14:49;;;;;;;30.88;19.80;;;8.50;40.70;;;;;;5054555;28;20203;-74
2022/03/19 09:17:17;;;;;;;28.17;19.35;;;8.50;40.50;;;;;;5053090;28;20296;-73
2022/03/19 09:19:43;;;;;;;32.85;20.05;;;8.60;41.50;;;;;;5053034;28;20730;-73
2022/03/19 09:22:10;;;;;;;30.27;20.23;;;8.80;41.20;;;;;;5052991;28;20764;-73
2022/03/19 09:24:37;;;;;;;35.47;21.10;;;8.80;40.30;;;;;;5053289;28;20207;-74
2022/03/19 09:27:06;;;;;;;35.03;21.20;;;8.80;39.60;;;;;;5053377;28;20387;-73
2022/03/19 09:29:33;;;;;;;33.75;22.75;;;8.70;40.40;;;;;;5053165;28;20231;-73
2022/03/19 09:32:00;;;;;;;36.95;22.17;;;8.60;39.60;;;;;;5053287;28;20204;-74
2022/03/19 09:34:26;;;;;;;35.90;22.63;;;8.40;40.50;;;;;;5053194;28;20303;-74
2022/03/19 09:36:53;;;;;;;34.90;22.42;;;8.20;41.50;;;;;;5052893;28;20767;-75
2022/03/19 09:39:20;;;;;;;34.22;22.60;;;8.10;42.10;;;;;;5052828;28;20762;-75
2022/03/19 09:41:47;;;;;;;30.95;20.88;;;8.00;43.30;;;;;;5053209;28;20304;-75
2022/03/19 09:44:17;;;;;;;31.48;21.85;;;8.10;44.50;;;;;;5053204;28;20197;-74
2022/03/19 09:46:46;;;;;;;31.58;21.20;;;8.20;43.10;;;;;;5053088;28;20276;-73
2022/03/19 09:49:13;;;;;;;37.58;22.95;;;8.30;44.00;;;;;;5052827;28;20237;-74
2022/03/19 09:51:44;;;;;;;37.15;22.92;;;8.40;43.20;;;;;;5053229;28;20200;-74
2022/03/19 09:54:13;;;;;;;37.25;24.08;;;8.50;43.60;;;;;;5054861;28;20699;-73
2022/03/19 09:56:41;;;;;;;35.03;22.13;;;8.50;42.00;;;;;;5057459;28;20239;-74
2022/03/19 09:59:08;;;;;;;34.00;21.55;;;8.60;42.70;;;;;;5060274;28;20753;-75
2022/03/19 10:01:38;;;;;;;34.53;21.92;;;8.80;43.30;;;;;;5059599;28;20193;-77
2022/03/19 10:04:08;;;;;;;29.80;20.85;;;8.80;41.80;;;;;;5059070;28;20204;-76
2022/03/19 10:09:32;;;;;;;34.70;21.45;;;9.20;42.50;;;;;;5058081;28;20298;-74
2022/03/19 10:12:01;;;;;;;33.67;23.08;;;9.10;40.40;;;;;;5058611;28;20610;-75
2022/03/19 10:14:28;;;;;;;37.72;23.40;;;9.00;39.20;;;;;;5058883;28;20257;-75
2022/03/19 10:16:57;;;;;;;35.38;22.27;;;8.80;39.40;;;;;;5057639;28;20588;-73
2022/03/19 10:19:25;;;;;;;37.90;23.35;;;8.80;40.60;;;;;;5059239;28;20220;-73
2022/03/19 10:21:54;;;;;;;31.25;21.27;;;8.80;42.00;;;;;;5058356;28;20212;-75
2022/03/19 10:24:26;;;;;;;33.22;20.88;;;8.90;42.30;;;;;;5057767;28;20205;-75
2022/03/19 10:26:53;;;;;;;36.33;22.95;;;9.00;42.80;;;;;;5057966;28;20183;-75
2022/03/19 10:29:30;;;;;;;36.65;23.83;;;9.10;41.50;;;;;;5060226;28;20587;-76
2022/03/19 10:32:08;;;;;;;35.90;21.80;;;9.20;40.80;;;;;;5060927;28;20197;-76
2022/03/19 10:34:40;;;;;;;28.85;19.83;;;9.40;40.70;;;;;;5058561;28;20283;-76
2022/03/19 10:37:07;;;;;;;31.85;21.33;;;9.60;38.70;;;;;;5056491;28;20262;-76
2022/03/19 10:39:34;;;;;;;36.53;21.80;;;9.70;36.70;;;;;;5057241;28;20225;-75
2022/03/19 10:42:14;;;;;;;33.53;21.75;;;9.70;36.10;;;;;;5057554;28;20209;-75
2022/03/19 10:44:40;;;;;;;29.30;20.27;;;9.70;36.30;;;;;;5057296;28;20201;-75
2022/03/19 10:47:09;;;;;;;30.92;19.60;;;9.70;38.40;;;;;;5056492;28;20196;-76
2022/03/19 10:49:36;;;;;;;27.30;18.17;;;9.80;35.70;;;;;;5055858;28;20266;-76
2022/03/19 10:52:04;;;;;;;29.42;20.40;;;9.90;35.40;;;;;;5056037;28;20201;-72
2022/03/19 10:54:31;;;;;;;32.50;21.30;;;9.90;34.90;;;;;;5056285;28;20259;-75
2022/03/19 10:56:58;;;;;;;32.67;20.73;;;9.90;34.50;;;;;;5055867;28;20227;-75
2022/03/19 10:59:27;;;;;;;33.83;21.83;;;9.80;34.90;;;;;;5055822;28;20226;-74
2022/03/19 11:01:56;;;;;;;35.92;21.80;;;9.80;34.80;;;;;;5055831;28;20684;-73
2022/03/19 11:04:25;;;;;;;30.10;20.10;;;9.90;35.20;;;;;;5056037;28;20262;-72
2022/03/19 11:06:54;;;;;;;29.05;18.95;;;9.90;35.50;;;;;;5055726;28;20233;-72
2022/03/19 11:09:26;;;;;;;27.73;18.02;;;10.00;32.30;;;;;;5056065;28;20231;-70
2022/03/19 11:11:57;;;;;;;29.33;18.85;;;10.00;33.20;;;;;;5054769;28;20189;-71
2022/03/19 11:14:25;;;;;;;28.88;18.17;;;10.10;32.10;;;;;;5055658;28;20668;-71
2022/03/19 11:19:45;;;;;;;30.50;19.02;;;10.20;32.90;;;;;;5058793;28;20726;-73
2022/03/19 11:22:13;;;;;;;26.35;18.48;;;10.20;31.50;;;;;;5059518;28;20204;-73
2022/03/19 11:24:48;;;;;;;27.73;18.38;;;10.20;30.60;;;;;;5059053;28;20201;-73
2022/03/19 11:27:16;;;;;;;27.63;18.60;;;10.20;29.50;;;;;;5060807;28;20566;-73
2022/03/19 11:29:43;;;;;;;29.08;19.60;;;10.20;28.50;;;;;;5061988;28;20790;-72
2022/03/19 11:32:22;;;;;;;24.48;17.00;;;10.10;28.30;;;;;;5061713;28;20211;-72
2022/03/19 11:34:56;;;;;;;27.95;17.73;;;10.10;29.00;;;;;;5061201;28;20181;-71
2022/03/19 11:37:24;;;;;;;30.92;19.52;;;10.10;28.00;;;;;;5059211;28;20294;-72
2022/03/19 11:40:05;;;;;;;28.63;17.52;;;10.00;28.20;;;;;;5057358;28;20601;-72
2022/03/19 11:42:33;;;;;;;36.00;18.75;;;10.10;29.40;;;;;;5056763;28;20201;-72
2022/03/19 11:45:10;;;;;;;27.15;18.52;;;10.10;28.30;;;;;;5056881;28;20210;-72
2022/03/19 11:47:38;;;;;;;23.45;17.27;;;10.10;28.00;;;;;;5055915;28;20191;-73
2022/03/19 11:50:19;;;;;;;26.42;16.95;;;10.00;27.90;;;;;;5055073;28;20278;-72
2022/03/19 11:53:06;;;;;;;22.23;15.18;;;10.10;27.70;;;;;;5056211;28;20188;-72
2022/03/19 11:55:40;;;;;;;29.42;19.38;;;10.20;27.80;;;;;;5055717;28;20291;-72
2022/03/19 11:58:14;;;;;;;23.55;16.77;;;10.20;27.40;;;;;;5054861;28;20232;-71
2022/03/19 12:00:41;;;;;;;25.92;16.95;;;10.10;27.80;;;;;;5054656;28;20188;-72
2022/03/19 12:03:12;;;;;;;28.42;17.63;;;10.10;28.10;;;;;;5054731;28;20201;-71
2022/03/19 12:05:42;;;;;;;27.10;17.60;;;10.20;28.30;;;;;;5054754;28;20650;-72
2022/03/19 12:08:12;;;;;;;25.35;17.23;;;10.20;28.70;;;;;;5055165;28;20189;-72
2022/03/19 12:11:15;;;;;;;29.60;19.20;;;10.30;29.00;;;;;;5055872;28;20213;-73
2022/03/19 12:13:49;;;;;;;21.52;15.50;;;10.40;28.70;;;;;;5023050;28;20243;-72
2022/03/19 12:16:37;;;;;;;24.92;16.23;;;10.40;28.80;;;;;;5054942;28;20204;-72
2022/03/19 12:19:04;;;;;;;19.92;14.15;;;10.50;28.50;;;;;;5055559;28;20220;-72
2022/03/19 12:21:37;;;;;;;22.70;15.63;;;10.50;28.70;;;;;;5055666;28;20200;-72
2022/03/19 12:24:17;;;;;;;29.80;17.50;;;10.60;27.80;;;;;;5055176;28;20199;-72
2022/03/19 12:26:46;;;;;;;23.02;15.77;;;10.50;27.50;;;;;;5055065;28;20181;-74
2022/03/19 12:29:16;;;;;;;20.55;14.77;;;10.50;27.60;;;;;;5056776;28;20220;-73
2022/03/19 12:31:46;;;;;;;19.20;14.13;;;10.60;27.80;;;;;;5056778;28;20273;-73
2022/03/19 12:34:17;;;;;;;26.40;16.75;;;10.60;28.20;;;;;;5059973;28;20204;-73
2022/03/19 12:36:47;;;;;;;27.85;18.08;;;10.60;27.30;;;;;;5057245;28;20213;-73
2022/03/19 12:39:14;;;;;;;26.60;18.17;;;10.50;27.40;;;;;;5056257;28;20231;-73
2022/03/19 12:41:43;;;;;;;23.45;16.60;;;10.30;27.90;;;;;;5054927;28;20209;-73
2022/03/19 12:44:19;;;;;;;22.50;13.93;;;10.30;28.40;;;;;;5054525;28;20737;-72
2022/03/19 12:46:47;;;;;;;19.45;14.05;;;10.30;28.00;;;;;;5055829;28;20663;-72
2022/03/19 12:49:16;;;;;;;23.73;16.00;;;10.40;28.50;;;;;;5054722;28;20232;-72
2022/03/19 12:51:46;;;;;;;25.75;16.90;;;10.30;27.80;;;;;;5054794;28;20266;-72
2022/03/19 12:54:21;;;;;;;24.48;15.77;;;10.30;28.60;;;;;;5054082;28;20702;-72
2022/03/19 12:56:48;;;;;;;22.75;16.00;;;10.30;29.30;;;;;;5054432;28;20227;-72
2022/03/19 12:59:20;;;;;;;27.20;17.00;;;10.40;29.40;;;;;;5053740;28;20730;-72
2022/03/19 13:01:47;;;;;;;18.83;14.18;;;10.50;29.20;;;;;;5054272;28;20236;-72